Latest Weather Observations for Dubbo

IDN60801

Issued at 8:52 am EDT Tuesday 22 January 2019 (issued every 10 minutes, with the page automatically refreshed every 10 minutes)

About weather observations | Map of weather stations | Latest weather observations for NSW | Other Formats
Station Details ID: 065070 Name: DUBBO AIRPORT AWS Lat: -32.22 Lon: 148.58 Height: 284.0 m
Data from the previous 72 hours. | See also: Recent months at Dubbo
Date/Time
EDT
Temp
°C
App
Temp
°C
Dew
Point
°C
Rel
Hum
%
Delta-T
°C
Wind Press
QNH
hPa
Press
MSL
hPa
Rain since
9am
mm
Dir  Spd
km/h
Gust
km/h
Spd
kts
Gust
kts
22/08:30am 25.9 26.4 20.0 70 3.9 E 17 19 9 10 1016.6 1014.9 0.0
22/08:00am 24.3 24.6 19.6 75 3.1 ENE 17 20 9 11 1016.4 1014.7 0.0
22/07:30am 24.5 24.9 19.8 75 3.1 E 17 24 9 13 1016.2 1014.5 0.0
22/07:00am 23.4 24.6 20.0 81 2.2 E 13 19 7 10 1016.0 1014.3 0.0
22/06:30am 22.6 23.0 19.8 84 1.8 E 17 22 9 12 1015.6 1014.0 0.0
22/06:00am 22.4 23.1 19.6 84 1.8 E 15 19 8 10 1015.3 1013.7 0.0
22/05:30am 22.8 22.7 19.6 82 2.1 ESE 19 24 10 13 1015.0 1013.4 0.0
22/05:00am 22.5 23.5 19.5 83 1.9 ESE 13 15 7 8 1015.0 1013.4 0.0
22/04:30am 22.8 23.4 19.4 81 2.2 ESE 15 19 8 10 1014.8 1013.2 0.0
22/04:00am 23.3 23.6 19.5 79 2.5 E 17 24 9 13 1014.8 1013.2 0.0
22/03:30am 23.1 23.3 19.3 79 2.4 E 17 24 9 13 1015.0 1013.4 0.0
22/03:00am 23.5 24.1 19.4 78 2.6 E 15 22 8 12 1015.1 1013.5 0.0
22/02:30am 23.1 24.0 19.3 79 2.4 E 13 17 7 9 1015.2 1013.6 0.0
22/02:00am 23.3 24.2 19.2 78 2.6 ENE 13 19 7 10 1015.4 1013.8 0.0
22/01:30am 23.7 23.7 19.0 75 3.0 E 17 20 9 11 1015.6 1014.0 0.0
22/01:00am 23.7 23.3 19.0 75 3.0 E 19 24 10 13 1015.7 1014.1 0.0
22/12:30am 24.1 23.0 18.7 72 3.5 E 22 30 12 16 1015.8 1014.2 0.0
22/12:00am 24.4 23.0 18.8 71 3.6 E 24 33 13 18 1015.7 1014.1 0.0
 
Date/Time
EDT
Temp
°C
App
Temp
°C
Dew
Point
°C
Rel
Hum
%
Delta-T
°C
Wind Press
QNH
hPa
Press
MSL
hPa
Rain since
9am
mm
Dir  Spd
km/h
Gust
km/h
Spd
kts
Gust
kts
21/11:30pm 24.6 24.1 19.0 71 3.6 E 20 30 11 16 1016.2 1014.5 0.0
21/11:00pm 24.9 23.8 19.5 72 3.5 ENE 24 30 13 16 1016.3 1014.6 0.0
21/10:30pm 25.2 24.0 20.0 73 3.4 ENE 26 32 14 17 1016.3 1014.6 0.0
21/10:00pm 25.8 24.8 20.4 72 3.6 ENE 26 35 14 19 1016.0 1014.3 0.0
21/09:30pm 26.3 24.8 20.2 69 4.0 E 28 37 15 20 1015.5 1013.9 0.0
21/09:00pm 27.2 26.0 20.0 64 4.7 E 26 35 14 19 1015.2 1013.6 0.0
21/08:30pm 28.2 26.8 18.9 57 6.1 E 24 30 13 16 1014.7 1013.1 0.0
21/08:00pm 29.0 27.4 18.4 52 6.9 E 24 32 13 17 1014.4 1012.8 0.0
21/07:30pm 30.3 29.0 19.0 50 7.4 ENE 24 32 13 17 1014.2 1012.5 0.0
21/07:00pm 31.6 29.9 18.9 47 8.4 ENE 26 35 14 19 1014.0 1012.3 0.0
21/06:30pm 32.7 31.9 18.5 43 9.3 ENE 20 28 11 15 1014.1 1012.4 0.0
21/06:00pm 33.2 33.7 17.4 39 10.2 E 11 19 6 10 1014.0 1012.3 0.0
21/05:30pm 32.9 32.9 17.1 39 10.2 NE 13 20 7 11 1013.9 1012.2 0.0
21/05:00pm 32.7 32.4 17.3 39 9.9 NE 15 20 8 11 1014.1 1012.4 0.0
21/04:30pm 32.8 32.5 17.4 39 10.0 NE 15 20 8 11 1014.4 1012.8 0.0
21/04:00pm 32.9 33.2 17.1 39 10.2 N 11 32 6 17 1014.6 1013.0 0.0
21/03:30pm 33.1 33.7 16.9 38 10.4 NE 9 15 5 8 1014.8 1013.2 0.0
21/03:00pm 32.4 33.4 18.6 44 9.1 ESE 11 20 6 11 1015.1 1013.5 0.0
21/02:30pm 31.9 32.3 19.9 49 8.0 E 17 28 9 15 1015.4 1013.8 0.0
21/02:00pm 30.6 29.9 18.7 49 7.8 ENE 20 28 11 15 1015.7 1014.1 0.0
21/01:30pm 30.9 29.9 18.9 48 7.9 E 22 30 12 16 1016.2 1014.5 0.0
21/01:00pm 30.5 29.6 18.2 47 8.0 NE 20 32 11 17 1016.6 1014.9 0.0
21/12:30pm 30.7 29.5 18.4 47 8.0 ENE 22 33 12 18 1017.0 1015.3 0.0
21/12:00pm 30.0 29.1 19.1 52 7.1 ENE 22 32 12 17 1017.4 1015.7 0.0
21/11:30am 29.8 29.7 21.5 61 5.6 ENE 24 33 13 18 1017.4 1015.7 0.0
21/11:00am 28.4 27.7 20.2 61 5.4 ENE 24 32 13 17 1017.6 1016.0 0.0
21/10:30am 26.4 25.3 20.3 69 4.0 ENE 26 32 14 17 1017.7 1016.1 0.0
21/10:00am 24.4 22.9 19.5 74 3.2 E 26 32 14 17 1017.8 1016.2 0.0
21/09:30am 24.1 24.1 20.2 79 2.6 E 20 26 11 14 1018.1 1016.5 0.0
21/09:00am 23.4 23.7 20.5 84 1.9 ESE 19 24 10 13 1018.2 1016.6 39.4
21/08:30am 22.7 22.8 20.0 85 1.8 ESE 19 26 10 14 1018.2 1016.6 39.4
21/08:00am 22.2 22.4 20.1 88 1.4 E 19 26 10 14 1018.1 1016.5 39.4
21/07:30am 21.8 22.3 20.1 90 1.1 E 17 22 9 12 1018.1 1016.5 39.4
21/07:00am 21.5 21.7 20.5 94 0.7 ENE 20 26 11 14 1017.9 1016.3 39.4
21/06:30am 21.4 22.6 19.9 91 1.0 ENE 13 19 7 10 1018.0 1016.4 39.4
21/06:00am 21.4 23.0 19.9 91 1.0 ENE 11 17 6 9 1017.8 1016.2 39.4
21/05:30am 21.1 21.2 19.9 93 0.8 E 19 26 10 14 1017.5 1015.9 39.4
21/05:00am 21.2 21.5 20.4 95 0.5 ESE 19 22 10 12 1017.6 1016.0 39.4
21/04:30am 21.2 23.9 20.2 94 0.6 E 6 7 3 4 1018.6 1017.0 38.6
21/04:00am 21.5 24.5 20.0 91 1.0 E 4 11 2 6 1018.9 1017.3 37.8
21/03:30am 21.3 22.9 19.9 92 0.9 E 11 17 6 9 1018.6 1017.0 37.0
21/03:00am 21.4 22.5 20.4 94 0.7 SE 15 20 8 11 1018.3 1016.7 35.8
21/02:30am 21.6 22.7 20.4 93 0.8 SSE 15 19 8 10 1018.7 1017.1 34.2
21/02:00am 21.8 21.2 20.6 93 0.8 SE 24 30 13 16 1018.1 1016.5 33.2
21/01:30am 22.3 21.9 20.2 88 1.4 SSE 22 30 12 16 1018.8 1017.2 32.4
21/01:00am 22.3 23.2 20.0 87 1.5 SE 15 20 8 11 1017.9 1016.3 32.0
21/12:30am 22.1 22.0 19.6 86 1.6 E 19 24 10 13 1017.4 1015.7 32.0
21/12:00am 21.9 21.3 20.5 92 0.9 E 24 30 13 16 1017.1 1015.4 32.0
 
Date/Time
EDT
Temp
°C
App
Temp
°C
Dew
Point
°C
Rel
Hum
%
Delta-T
°C
Wind Press
QNH
hPa
Press
MSL
hPa
Rain since
9am
mm
Dir  Spd
km/h
Gust
km/h
Spd
kts
Gust
kts
20/11:30pm 21.9 20.9 20.4 91 1.0 NE 26 35 14 19 1018.1 1016.5 31.2
20/11:00pm 22.3 25.2 20.6 90 1.1 SW 6 15 3 8 1019.4 1017.8 29.8
20/10:30pm 22.1 21.3 20.0 88 1.4 WSW 24 33 13 18 1019.1 1017.5 28.8
20/10:00pm 22.2 21.3 19.9 87 1.5 SW 24 30 13 16 1020.0 1018.3 28.2
20/09:42pm 22.0 20.2 20.3 90 1.1 SW 30 41 16 22 1019.3 1017.7 27.8
20/09:31pm 22.0 18.1 20.3 90 1.1 WSW 41 56 22 30 1018.4 1016.8 27.8
20/09:30pm 22.1 17.7 20.2 89 1.2 WSW 43 56 23 30 1018.4 1016.8 27.8
20/09:08pm 22.8 21.0 18.8 78 2.6 WSW 26 43 14 23 1018.7 1017.1 26.2
20/09:00pm 24.7 23.0 18.2 67 4.1 N 24 37 13 20 1017.8 1016.2 25.2
20/08:57pm 24.8 22.0 17.3 63 4.7 N 28 43 15 23 1016.6 1014.9 25.2
20/08:39pm 26.8 22.9 16.4 53 6.5 NNW 32 56 17 30 1014.5 1012.9 25.2
20/08:30pm 25.0 22.3 18.4 66 4.2 NNW 30 46 16 25 1014.9 1013.3 25.2
20/08:27pm 24.6 21.4 18.5 69 3.9 NW 33 54 18 29 1015.2 1013.6 25.2
20/08:17pm 23.6 20.5 18.5 73 3.3 N 32 54 17 29 1015.4 1013.8 25.2
20/08:15pm 24.7 22.7 19.1 71 3.6 N 28 48 15 26 1015.4 1013.8 25.2
20/08:05pm 24.8 22.2 18.7 69 3.9 NE 30 41 16 22 1013.3 1011.6 25.2
20/08:03pm 24.1 21.3 19.0 73 3.3 NE 32 48 17 26 1013.3 1011.6 25.2
20/08:00pm 23.6 20.2 18.9 75 3.0 ENE 35 56 19 30 1013.3 1011.6 25.2
20/07:58pm 22.4 18.4 18.6 79 2.4 ENE 37 56 20 30 1013.5 1011.8 25.2
20/07:37pm 21.7 17.5 18.9 84 1.8 E 39 63 21 34 1013.3 1011.6 22.6
20/07:35pm 22.1 18.3 18.1 78 2.5 ENE 35 61 19 33 1013.4 1011.7 21.4
20/07:31pm 22.4 17.2 17.5 74 3.1 NW 41 65 22 35 1014.6 1013.0 19.0
20/07:30pm 27.2 22.8 19.3 62 5.2 NW 41 65 22 35 1014.6 1013.0 17.4
20/07:27pm 23.5 16.6 15.5 60 4.9 NW 46 65 25 35 1014.8 1013.2 14.8
20/07:21pm 21.1 14.9 17.3 79 2.4 NNW 46 63 25 34 1014.2 1012.5 7.0
20/07:20pm 21.9 17.1 19.6 87 1.5 NNW 44 63 24 34 1014.4 1012.8 5.6
20/07:17pm 21.9 17.2 19.5 86 1.5 NNW 43 59 23 32 1014.1 1012.4 4.2
20/07:16pm 22.2 17.4 19.2 83 1.9 NNW 43 59 23 32 1014.0 1012.3 3.8
20/07:14pm 23.6 18.9 19.5 78 2.7 NNW 43 59 23 32 1013.7 1012.0 3.8
20/07:04pm 23.8 18.2 19.5 77 2.8 NNW 48 63 26 34 1013.7 1012.0 2.2
20/07:00pm 23.9 18.3 19.6 77 2.8 NW 48 63 26 34 1014.0 1012.3 1.8
20/06:59pm 24.2 18.2 18.6 71 3.6 NW 48 63 26 34 1014.0 1012.3 1.6
20/06:53pm 25.5 22.3 19.4 69 4.0 NW 35 57 19 31 1013.9 1012.2 0.6
20/06:47pm 30.2 29.1 18.6 49 7.6 N 22 44 12 24 1013.7 1012.0 0.0
20/06:30pm 36.3 34.5 15.4 28 13.3 E 19 28 10 15 1012.1 1010.5 0.0
20/06:28pm 36.3 34.3 15.4 28 13.3 E 20 28 11 15 1012.1 1010.5 0.0
20/06:00pm 37.8 34.9 15.0 26 14.5 E 24 32 13 17 1012.3 1010.6 0.0
20/05:30pm 37.5 35.2 14.7 25 14.4 ESE 20 30 11 16 1012.6 1010.9 0.0
20/05:00pm 38.6 37.0 11.6 20 16.4 N 11 19 6 10 1012.9 1011.2 0.0
20/04:30pm 39.5 37.9 11.6 19 17.0 NNW 11 19 6 10 1013.1 1011.4 0.0
20/04:00pm 39.0 37.5 12.0 20 16.5 SSE 11 20 6 11 1013.4 1011.7 0.0
20/03:30pm 39.4 38.9 13.7 21 16.1 WSW 9 17 5 9 1013.9 1012.2 0.0
20/03:00pm 38.5 38.0 13.7 23 15.5 WNW 9 20 5 11 1014.6 1013.0 0.0
20/02:30pm 38.2 38.2 14.1 24 15.1 NW 7 15 4 8 1015.1 1013.5 0.0
20/02:00pm 38.4 37.5 14.9 25 14.9 ENE 13 19 7 10 1015.6 1014.0 0.0
20/01:30pm 37.1 36.7 16.1 29 13.5 NNE 13 22 7 12 1016.2 1014.5 0.0
20/01:00pm 35.7 34.2 15.4 29 12.9 ENE 17 30 9 16 1016.7 1015.0 0.0
20/12:30pm 34.3 33.1 16.2 34 11.6 ENE 17 30 9 16 1017.4 1015.7 0.0
20/12:00pm 34.6 33.1 16.4 33 11.7 ENE 19 28 10 15 1017.8 1016.2 0.0
20/11:30am 32.5 30.8 17.2 40 9.9 ENE 22 32 12 17 1018.0 1016.4 0.0
20/11:00am 31.6 29.8 17.9 44 8.9 ENE 24 39 13 21 1018.4 1016.8 0.0
20/10:30am 30.2 27.3 18.0 48 7.9 ENE 30 37 16 20 1018.7 1017.1 0.0
20/10:00am 29.0 25.9 17.5 49 7.3 ENE 30 39 16 21 1018.7 1017.1 0.0
20/09:30am 28.9 26.6 18.4 53 6.8 E 28 37 15 20 1018.7 1017.1 0.0
20/09:00am 26.0 23.1 17.9 61 5.2 E 30 39 16 21 1018.6 1017.0 0.0
20/08:30am 26.3 23.6 18.4 61 5.1 E 30 41 16 22 1018.4 1016.8 0.0
20/08:00am 25.2 23.2 18.4 66 4.3 E 26 35 14 19 1018.1 1016.5 0.0
20/07:30am 24.0 22.0 18.2 70 3.7 E 26 32 14 17 1017.7 1016.1 0.0
20/07:00am 23.4 22.2 18.3 73 3.2 E 22 30 12 16 1017.4 1015.7 0.0
20/06:30am 23.2 22.3 18.3 74 3.1 E 20 28 11 15 1017.3 1015.6 0.0
20/06:00am 23.1 22.1 18.0 73 3.2 E 20 30 11 16 1016.9 1015.2 0.0
20/05:30am 23.3 21.2 18.0 72 3.4 E 26 35 14 19 1016.6 1014.9 0.0
20/05:00am 23.5 21.3 17.9 71 3.5 E 26 37 14 20 1016.6 1014.9 0.0
20/04:30am 23.8 21.6 17.8 69 3.8 E 26 35 14 19 1016.7 1015.0 0.0
20/04:00am 23.8 22.4 18.0 70 3.7 E 22 32 12 17 1016.7 1015.0 0.0
20/03:30am 23.8 21.6 17.8 69 3.8 E 26 39 14 21 1016.7 1015.0 0.0
20/03:00am 24.0 21.7 17.7 68 4.0 E 26 35 14 19 1016.7 1015.0 0.0
20/02:30am 24.2 22.4 17.9 68 4.0 ESE 24 37 13 20 1016.9 1015.2 0.0
20/02:00am 24.3 21.8 18.0 68 4.0 E 28 39 15 21 1017.0 1015.3 0.0
20/01:30am 24.5 21.2 18.0 67 4.1 E 32 46 17 25 1017.2 1015.5 0.0
20/01:00am 25.0 21.7 18.0 65 4.4 E 32 46 17 25 1017.5 1015.9 0.0
20/12:30am 25.7 21.8 17.9 62 5.0 ENE 35 52 19 28 1017.2 1015.5 0.0
20/12:24am 25.9 22.4 17.8 61 5.2 ENE 33 52 18 28 1017.1 1015.4 0.0
20/12:00am 26.5 23.0 17.8 58 5.5 ENE 33 44 18 24 1016.9 1015.2 0.0
 
Date/Time
EDT
Temp
°C
App
Temp
°C
Dew
Point
°C
Rel
Hum
%
Delta-T
°C
Wind Press
QNH
hPa
Press
MSL
hPa
Rain since
9am
mm
Dir  Spd
km/h
Gust
km/h
Spd
kts
Gust
kts
19/11:30pm 27.4 23.7 18.4 58 5.8 ENE 35 48 19 26 1016.6 1014.9 0.0
19/11:07pm 27.9 24.7 18.6 57 6.0 ENE 33 43 18 23 1016.4 1014.7 0.0
19/11:00pm 28.2 24.5 18.3 55 6.4 ENE 35 48 19 26 1016.4 1014.7 0.0
19/10:48pm 29.0 25.8 18.1 51 7.0 E 32 46 17 25 1016.2 1014.5 0.0
19/10:30pm 31.0 29.3 17.3 43 8.8 E 22 37 12 20 1016.0 1014.3 0.0
19/10:28pm 31.1 29.7 17.0 42 9.0 ESE 20 37 11 20 1015.8 1014.2 0.0
19/10:00pm 32.7 31.7 12.3 28 12.2 SSE 9 15 5 8 1015.2 1013.6 0.0
19/09:30pm 33.8 32.4 12.2 27 13.0 SSE 11 13 6 7 1014.8 1013.2 0.0
19/09:00pm 34.4 32.6 12.1 26 13.4 SSE 13 17 7 9 1014.5 1012.9 0.0
19/08:30pm 35.3 33.0 11.7 24 14.2 S 15 20 8 11 1014.2 1012.5 0.0
19/08:00pm 35.8 32.8 10.8 22 14.8 S 17 22 9 12 1013.9 1012.2 0.0
19/07:30pm 36.9 33.4 10.2 20 15.8 S 19 26 10 14 1013.6 1011.9 0.0
19/07:00pm 37.3 33.5 9.8 19 16.2 S 20 28 11 15 1013.5 1011.8 0.0
19/06:30pm 37.8 33.9 9.4 18 16.7 S 20 26 11 14 1013.3 1011.6 0.0
19/06:00pm 38.1 33.3 8.8 17 17.1 SSE 24 35 13 19 1013.2 1011.5 0.0
19/05:30pm 39.3 37.3 6.9 14 18.4 NE 7 15 4 8 1013.2 1011.5 0.0
19/05:00pm 39.4 37.0 7.0 14 18.5 NNE 9 17 5 9 1013.5 1011.8 0.0
19/04:30pm 40.4 37.8 7.8 14 18.9 W 11 19 6 10 1013.8 1012.1 0.0
19/04:00pm 39.2 35.5 7.8 15 18.1 WSW 17 24 9 13 1014.0 1012.3 0.0
19/03:30pm 39.4 37.2 8.0 15 18.2 SSW 9 17 5 9 1014.3 1012.7 0.0
19/03:00pm 40.1 37.1 7.5 14 18.8 WNW 13 24 7 13 1014.4 1012.8 0.0
19/02:30pm 39.6 36.5 7.1 14 18.6 WNW 13 26 7 14 1014.8 1013.2 0.0
19/02:00pm 39.0 35.6 7.7 15 18.0 W 15 24 8 13 1015.2 1013.6 0.0
19/01:30pm 38.1 34.6 7.0 15 17.6 WNW 15 26 8 14 1015.3 1013.7 0.0
19/01:00pm 39.0 35.6 7.7 15 18.0 WNW 15 24 8 13 1015.8 1014.2 0.0
19/12:30pm 36.9 32.6 7.8 17 16.6 NW 20 32 11 17 1016.3 1014.6 0.0
19/12:00pm 37.5 32.2 8.3 17 16.8 NW 26 33 14 18 1016.2 1014.5 0.0
19/11:30am 36.6 31.7 8.4 18 16.2 NNW 24 32 13 17 1015.8 1014.2 0.0
19/11:00am 35.4 30.1 8.3 19 15.5 NNW 26 35 14 19 1015.8 1014.2 0.0
19/10:30am 35.7 29.1 7.7 18 15.9 NNW 32 44 17 24 1015.6 1014.0 0.0
19/10:00am 34.5 28.6 7.5 19 15.2 NNW 28 35 15 19 1015.5 1013.9 0.0
19/09:30am 34.5 30.1 7.5 19 15.2 NNW 20 30 11 16 1015.5 1013.9 0.0
19/09:00am 33.0 29.1 7.1 20 14.3 N 17 20 9 11 1015.3 1013.7 0.0

Other Formats:

Comma delimited format used in spreadsheet applications
http://www.bom.gov.au/fwo/IDN60801/IDN60801.95719.axf

JavaScript Object Notation format (JSON) in row-major order
http://www.bom.gov.au/fwo/IDN60801/IDN60801.95719.json